Time;durP1;ratioP1;P1;durP2;ratioP2;P2;SDS_P1;SDS_P2;PMS_P1;PMS_P2;Temp;Humidity;BMP_temperature;BMP_pressure;BME280_temperature;BME280_humidity;BME280_pressure;Samples;Min_cycle;Max_cycle;Signal;HPM_P1;HPM_P2
2021/12/10 00:01:10;;;;;;;5.37;2.17;;;;;;;3.15;79.01;94274.12;4381620;32;20181;-62
2021/12/10 00:03:43;;;;;;;1.40;1.30;;;;;;;3.09;78.76;94276.03;4382195;32;20185;-61
2021/12/10 00:06:13;;;;;;;1.90;1.43;;;;;;;3.05;78.74;94272.38;4386539;32;20296;-61
2021/12/10 00:08:43;;;;;;;1.10;1.00;;;;;;;3.24;78.12;94273.28;4380572;32;20284;-61
2021/12/10 00:11:21;;;;;;;3.80;1.33;;;;;;;3.14;78.04;94255.00;4388078;32;20292;-61
2021/12/10 00:13:47;;;;;;;6.73;1.40;;;;;;;3.23;77.85;94250.75;4379532;32;20334;-61
2021/12/10 00:16:15;;;;;;;2.43;1.07;;;;;;;3.12;78.16;94255.28;4384554;32;20295;-61
2021/12/10 00:18:46;;;;;;;4.93;1.20;;;;;;;3.06;78.33;94255.59;4390881;32;20303;-61
2021/12/10 00:21:12;;;;;;;2.13;1.30;;;;;;;3.07;78.28;94244.06;4381306;32;20298;-61
2021/12/10 00:23:38;;;;;;;2.53;1.37;;;;;;;3.12;78.10;94238.78;4388011;32;20340;-61
2021/12/10 00:26:05;;;;;;;1.40;1.07;;;;;;;2.90;78.86;94235.81;4387777;32;20198;-61
2021/12/10 00:28:34;;;;;;;1.40;1.30;;;;;;;3.28;77.95;94232.38;4386438;32;20250;-61
2021/12/10 00:31:21;;;;;;;5.73;1.47;;;;;;;3.34;77.48;94228.66;4386361;32;20315;-61
2021/12/10 00:33:55;;;;;;;1.67;1.30;;;;;;;3.17;77.73;94214.38;4392817;32;20280;-61
2021/12/10 00:36:21;;;;;;;2.47;1.13;;;;;;;3.40;77.34;94218.91;4390904;32;20284;-61
2021/12/10 00:38:50;;;;;;;2.00;1.23;;;;;;;3.29;76.81;94223.47;4390018;32;20351;-61
2021/12/10 00:41:16;;;;;;;1.67;1.20;;;;;;;3.44;76.58;94210.22;4386672;32;20263;-61
2021/12/10 00:43:42;;;;;;;3.50;1.30;;;;;;;3.53;76.22;94207.03;4376760;32;20289;-61
2021/12/10 00:46:07;;;;;;;2.87;1.23;;;;;;;3.41;76.16;94200.28;4384664;32;20246;-61
2021/12/10 00:48:34;;;;;;;2.80;1.40;;;;;;;3.17;77.04;94202.06;4379773;32;20196;-61
2021/12/10 00:51:02;;;;;;;3.17;1.23;;;;;;;3.49;76.36;94198.16;4383877;32;20257;-61
2021/12/10 00:53:27;;;;;;;1.30;1.20;;;;;;;3.54;76.45;94184.97;4386187;32;20280;-61
2021/12/10 00:55:53;;;;;;;2.77;1.20;;;;;;;3.64;76.03;94182.25;4387881;32;20317;-61
2021/12/10 00:58:20;;;;;;;2.93;1.00;;;;;;;3.72;76.03;94189.53;4387849;32;20181;-61
2021/12/10 01:00:48;;;;;;;2.97;1.13;;;;;;;3.54;75.95;94179.72;4382194;32;20192;-61
2021/12/10 01:03:18;;;;;;;3.60;1.27;;;;;;;3.56;75.81;94169.75;4379971;32;20303;-61
2021/12/10 01:05:47;;;;;;;2.73;1.20;;;;;;;3.44;75.97;94173.53;4379336;32;20284;-61
2021/12/10 01:08:12;;;;;;;2.37;1.27;;;;;;;3.43;76.52;94160.72;4388420;32;20366;-61
2021/12/10 01:10:43;;;;;;;2.00;1.00;;;;;;;3.39;76.65;94150.00;4366494;32;20273;-61
2021/12/10 01:13:13;;;;;;;5.73;1.57;;;;;;;3.37;76.52;94148.69;4385691;32;20188;-61
2021/12/10 01:24:18;;;;;;;2.33;1.10;;;;;;;3.41;76.82;94141.84;4382576;32;20316;-61
2021/12/10 01:29:20;;;;;;;1.57;1.10;;;;;;;3.41;77.77;94126.13;4380458;32;20280;-61
2021/12/10 01:31:46;;;;;;;1.07;0.97;;;;;;;3.28;77.92;94119.72;4381088;32;20280;-61
2021/12/10 01:34:12;;;;;;;1.90;1.03;;;;;;;3.26;78.54;94118.41;4383122;32;20302;-61
2021/12/10 01:36:39;;;;;;;2.23;1.30;;;;;;;3.40;77.89;94099.13;4381844;32;20228;-61
2021/12/10 01:39:07;;;;;;;1.40;1.30;;;;;;;3.31;78.45;94103.44;4387523;32;20197;-62
2021/12/10 01:41:37;;;;;;;3.20;1.17;;;;;;;3.23;78.61;94100.63;4387737;32;20298;-61
2021/12/10 01:44:14;;;;;;;1.53;1.30;;;;;;;3.33;78.40;94096.06;4384997;32;20272;-62
2021/12/10 01:46:40;;;;;;;2.50;1.20;;;;;;;3.13;79.09;94096.25;4386763;32;20307;-61
2021/12/10 01:49:07;;;;;;;1.97;1.30;;;;;;;3.10;79.32;94096.84;4379261;32;20277;-61
2021/12/10 01:51:35;;;;;;;2.30;1.40;;;;;;;3.30;78.87;94088.78;4380348;32;20280;-61
2021/12/10 01:54:07;;;;;;;1.73;1.30;;;;;;;3.24;78.47;94079.37;4383320;32;20308;-62
2021/12/10 01:56:35;;;;;;;1.07;1.03;;;;;;;3.22;79.19;94076.25;4385558;32;20299;-62
2021/12/10 01:59:08;;;;;;;2.97;1.43;;;;;;;3.08;79.64;94070.13;4381112;32;20297;-63
2021/12/10 02:01:41;;;;;;;2.10;1.33;;;;;;;3.03;79.54;94057.84;4381755;32;20296;-61
2021/12/10 02:04:09;;;;;;;1.67;1.00;;;;;;;3.21;79.50;94055.59;4380044;32;20276;-61
2021/12/10 02:06:35;;;;;;;1.53;1.43;;;;;;;3.27;78.85;94055.25;4385354;32;20276;-61
2021/12/10 02:09:00;;;;;;;1.37;1.00;;;;;;;3.34;78.47;94045.19;4386937;32;20332;-61
2021/12/10 02:11:26;;;;;;;4.50;1.17;;;;;;;3.28;78.81;94043.72;4389371;32;20276;-61
2021/12/10 02:13:51;;;;;;;1.20;1.10;;;;;;;3.31;78.56;94037.16;4380820;32;20211;-61
2021/12/10 02:16:18;;;;;;;2.47;1.33;;;;;;;3.21;78.32;94027.53;4383337;32;20269;-61
2021/12/10 02:18:44;;;;;;;1.80;1.13;;;;;;;3.19;78.75;94023.63;4389994;32;20183;-61
2021/12/10 02:21:09;;;;;;;1.50;1.37;;;;;;;2.99;79.36;94014.16;4388336;32;20291;-61
2021/12/10 02:23:38;;;;;;;1.67;1.20;;;;;;;2.87;79.50;94009.31;4378031;32;20393;-61
2021/12/10 02:26:07;;;;;;;2.10;1.57;;;;;;;2.83;79.85;94005.69;4377956;32;20203;-62
2021/12/10 02:28:33;;;;;;;1.50;1.40;;;;;;;2.32;81.53;94002.72;4373747;32;20311;-61
2021/12/10 02:30:59;;;;;;;1.20;1.10;;;;;;;1.97;83.35;93993.31;4374651;32;20347;-61
2021/12/10 02:33:25;;;;;;;2.20;1.20;;;;;;;1.89;83.75;93989.44;4390613;32;20196;-61
2021/12/10 02:35:51;;;;;;;2.20;1.20;;;;;;;1.96;84.08;93976.06;4390681;32;20333;-61
2021/12/10 02:38:18;;;;;;;1.33;1.00;;;;;;;1.97;84.23;93969.78;4384689;32;20289;-61
2021/12/10 02:40:45;;;;;;;1.50;1.40;;;;;;;2.35;82.69;93962.94;4382501;32;20180;-61
2021/12/10 02:43:12;;;;;;;2.20;0.97;;;;;;;2.28;82.77;93963.28;4391062;32;20302;-61
2021/12/10 02:45:41;;;;;;;2.03;1.00;;;;;;;1.99;83.54;93952.78;4385951;32;20334;-61
2021/12/10 02:48:06;;;;;;;0.80;0.80;;;;;;;2.13;83.45;93941.69;4382315;32;20330;-61
2021/12/10 02:50:34;;;;;;;2.90;1.40;;;;;;;2.00;82.98;93938.66;4381456;32;20293;-61
2021/12/10 02:53:00;;;;;;;0.80;0.80;;;;;;;1.65;84.30;93938.91;4376373;32;20203;-61
2021/12/10 02:55:28;;;;;;;1.00;0.90;;;;;;;1.51;85.30;93927.50;4382392;32;20299;-60
2021/12/10 02:57:57;;;;;;;3.93;1.00;;;;;;;1.35;85.86;93930.19;4376278;32;20289;-61
2021/12/10 03:00:27;;;;;;;0.80;0.80;;;;;;;1.45;85.93;93923.38;4367938;32;20300;-61
2021/12/10 03:02:52;;;;;;;1.23;0.83;;;;;;;1.50;85.48;93916.25;4375440;32;20359;-61
2021/12/10 03:05:19;;;;;;;1.13;0.77;;;;;;;1.83;84.19;93909.50;4378995;32;20312;-61
2021/12/10 03:07:44;;;;;;;0.73;0.73;;;;;;;1.93;83.29;93901.56;4387320;32;20207;-61
2021/12/10 03:10:17;;;;;;;0.57;0.57;;;;;;;1.93;83.36;93903.41;4375025;32;20284;-61
2021/12/10 03:12:43;;;;;;;2.97;0.93;;;;;;;1.76;83.06;93903.81;4386581;32;20225;-61
2021/12/10 03:15:10;;;;;;;1.23;0.70;;;;;;;1.49;83.50;93904.25;4385046;32;20331;-61
2021/12/10 03:17:36;;;;;;;0.83;0.80;;;;;;;1.64;83.67;93906.00;4384710;32;20290;-61
2021/12/10 03:20:07;;;;;;;2.20;0.80;;;;;;;1.81;81.96;93898.53;4385572;32;20324;-62
2021/12/10 03:22:37;;;;;;;0.63;0.50;;;;;;;1.86;81.87;93895.91;4380445;32;20312;-61
2021/12/10 03:25:05;;;;;;;0.60;0.60;;;;;;;1.61;82.12;93886.41;4388545;32;20348;-61
2021/12/10 03:27:30;;;;;;;0.70;0.70;;;;;;;1.74;81.99;93879.78;4391861;32;20317;-62
2021/12/10 03:29:56;;;;;;;0.97;0.90;;;;;;;1.88;81.60;93880.69;4375457;32;20355;-61
2021/12/10 03:32:25;;;;;;;1.00;0.77;;;;;;;1.83;81.18;93882.59;4389787;32;20199;-61
2021/12/10 03:34:51;;;;;;;0.57;0.53;;;;;;;1.43;82.58;93881.06;4385540;32;20264;-61
2021/12/10 03:37:19;;;;;;;0.75;0.50;;;;;;;1.14;83.86;93884.34;4382458;32;20276;-61
2021/12/10 03:39:47;;;;;;;0.60;0.60;;;;;;;0.82;85.15;93870.97;4379655;32;20207;-61
2021/12/10 03:42:13;;;;;;;0.50;0.50;;;;;;;1.02;84.64;93863.03;4385564;32;20367;-61
2021/12/10 03:44:39;;;;;;;0.52;0.52;;;;;;;0.62;85.66;93858.78;4382081;32;20243;-61
2021/12/10 03:47:07;;;;;;;1.10;0.60;;;;;;;0.52;85.94;93851.75;4388208;32;20188;-61
2021/12/10 03:49:35;;;;;;;1.15;0.60;;;;;;;0.57;85.80;93853.56;4389219;32;20230;-61
2021/12/10 03:52:01;;;;;;;0.60;0.60;;;;;;;0.52;85.74;93849.16;4380045;32;20253;-66
2021/12/10 03:54:27;;;;;;;1.80;0.60;;;;;;;0.57;85.73;93846.53;4378211;32;20184;-61
2021/12/10 03:56:52;;;;;;;0.52;0.50;;;;;;;0.83;85.12;93833.38;4379992;32;20233;-61
2021/12/10 03:59:20;;;;;;;0.50;0.50;;;;;;;0.86;84.61;93822.38;4381574;32;20231;-61
2021/12/10 04:01:48;;;;;;;1.25;0.60;;;;;;;0.99;83.75;93822.56;4370836;32;20200;-61
2021/12/10 04:04:28;;;;;;;1.48;0.70;;;;;;;0.80;83.84;93826.09;4381755;32;20184;-61
2021/12/10 04:06:55;;;;;;;0.55;0.35;;;;;;;0.91;84.24;93823.12;4381412;32;20192;-61
2021/12/10 04:09:22;;;;;;;2.15;0.75;;;;;;;0.90;83.77;93812.97;4382096;32;20279;-61
2021/12/10 04:11:49;;;;;;;0.75;0.60;;;;;;;0.61;84.99;93815.47;4385501;32;20246;-61
2021/12/10 04:14:15;;;;;;;0.73;0.57;;;;;;;0.88;84.52;93809.84;4378606;32;20181;-61
2021/12/10 04:16:40;;;;;;;0.53;0.43;;;;;;;0.87;84.16;93811.66;4382603;32;20260;-60
2021/12/10 04:19:09;;;;;;;0.40;0.40;;;;;;;0.75;84.92;93808.62;4377900;32;20188;-60
2021/12/10 04:21:40;;;;;;;0.65;0.52;;;;;;;1.01;84.04;93798.81;4386443;32;20184;-60
2021/12/10 04:24:11;;;;;;;1.00;0.60;;;;;;;0.71;84.26;93793.75;4378665;32;20185;-59
2021/12/10 04:26:37;;;;;;;1.85;0.90;;;;;;;0.72;84.57;93784.88;4382431;32;20185;-60
2021/12/10 04:29:03;;;;;;;1.40;0.60;;;;;;;0.98;83.35;93781.06;4382343;32;20232;-60
2021/12/10 04:31:29;;;;;;;0.37;0.32;;;;;;;1.08;83.09;93778.38;4377139;32;20184;-60
2021/12/10 04:33:54;;;;;;;0.60;0.50;;;;;;;1.33;81.73;93780.81;4390813;32;20207;-60
2021/12/10 04:36:20;;;;;;;1.43;0.60;;;;;;;1.48;80.68;93772.06;4389143;32;20271;-59
2021/12/10 04:38:46;;;;;;;1.33;0.40;;;;;;;1.35;80.80;93765.63;4379687;32;20197;-59
2021/12/10 04:41:12;;;;;;;1.30;0.65;;;;;;;1.38;81.05;93770.31;4384788;32;20177;-59
2021/12/10 04:43:40;;;;;;;2.30;0.67;;;;;;;1.08;80.85;93773.16;4384102;32;20207;-60
2021/12/10 04:46:06;;;;;;;1.30;0.40;;;;;;;0.86;82.14;93767.56;4388738;32;20207;-60
2021/12/10 04:49:12;;;;;;;1.20;0.65;;;;;;;1.05;81.77;93755.41;4380793;32;20197;-60
2021/12/10 04:51:41;;;;;;;1.75;0.77;;;;;;;0.91;81.71;93757.88;4375082;32;20194;-60
2021/12/10 04:54:09;;;;;;;0.40;0.40;;;;;;;1.06;81.17;93753.59;4378757;32;20188;-60
2021/12/10 04:56:37;;;;;;;1.40;0.60;;;;;;;0.82;81.97;93761.34;4383079;32;20188;-60
2021/12/10 04:59:06;;;;;;;0.62;0.62;;;;;;;1.25;80.65;93757.09;4382357;32;20189;-60
2021/12/10 05:01:32;;;;;;;0.52;0.43;;;;;;;1.06;80.12;93754.38;4380711;32;20196;-60
2021/12/10 05:03:57;;;;;;;1.50;0.80;;;;;;;1.17;80.54;93750.66;4369664;32;20189;-60
2021/12/10 05:06:23;;;;;;;1.50;0.47;;;;;;;1.14;79.95;93745.19;4380249;32;20222;-60
2021/12/10 05:08:49;;;;;;;0.60;0.60;;;;;;;1.22;79.61;93724.50;4385300;32;20224;-59
2021/12/10 05:11:14;;;;;;;1.63;0.83;;;;;;;1.13;79.56;93713.06;4381162;32;20202;-59
2021/12/10 05:13:43;;;;;;;4.00;0.67;;;;;;;1.25;79.39;93697.81;4378260;32;20232;-59
2021/12/10 05:16:10;;;;;;;0.68;0.68;;;;;;;1.26;79.02;93681.09;4377629;32;20246;-60
2021/12/10 05:18:39;;;;;;;2.10;0.80;;;;;;;1.23;79.05;93689.50;4386445;32;20177;-60
2021/12/10 05:21:07;;;;;;;0.55;0.55;;;;;;;1.40;78.14;93688.28;4377252;32;20184;-60
2021/12/10 05:23:33;;;;;;;0.80;0.70;;;;;;;1.28;77.96;93702.50;4381194;32;20190;-60
2021/12/10 05:25:59;;;;;;;0.80;0.80;;;;;;;1.00;78.89;93705.87;4375762;32;20176;-60
2021/12/10 05:28:24;;;;;;;0.80;0.80;;;;;;;0.95;79.15;93701.47;4390348;32;20185;-60
2021/12/10 05:30:54;;;;;;;0.60;0.57;;;;;;;0.92;79.32;93706.47;4380436;32;20295;-59
2021/12/10 05:33:20;;;;;;;0.70;0.70;;;;;;;0.65;79.53;93694.62;4383707;32;20199;-59
2021/12/10 05:35:47;;;;;;;1.20;0.67;;;;;;;0.79;79.90;93692.22;4377440;32;20185;-60
2021/12/10 05:38:14;;;;;;;0.75;0.70;;;;;;;1.08;78.73;93694.84;4385247;32;20216;-59
2021/12/10 05:40:40;;;;;;;1.65;0.75;;;;;;;0.84;79.75;93696.59;4379534;32;20264;-59
2021/12/10 05:43:06;;;;;;;1.13;0.60;;;;;;;0.82;80.03;93688.28;4384560;32;20176;-59
2021/12/10 05:45:31;;;;;;;2.13;0.80;;;;;;;0.81;79.97;93684.13;4387160;32;20197;-60
2021/12/10 05:47:57;;;;;;;0.60;0.60;;;;;;;0.80;80.32;93677.34;4391866;32;20196;-60
2021/12/10 05:50:25;;;;;;;2.22;0.70;;;;;;;0.96;79.90;93670.94;4384033;32;20220;-60
2021/12/10 05:52:51;;;;;;;2.08;0.55;;;;;;;1.00;78.54;93662.28;4363334;32;20363;-60
2021/12/10 05:55:17;;;;;;;2.20;1.00;;;;;;;1.12;78.31;93661.91;4383199;32;20224;-60
2021/12/10 05:57:42;;;;;;;1.10;1.00;;;;;;;0.93;79.06;93664.44;4387959;32;20243;-60
2021/12/10 06:00:15;;;;;;;1.00;0.90;;;;;;;0.57;80.62;93657.94;4381101;32;20236;-60
2021/12/10 06:02:41;;;;;;;2.97;0.70;;;;;;;0.66;80.36;93657.06;4387135;32;20208;-59
2021/12/10 06:05:08;;;;;;;1.70;0.70;;;;;;;0.36;81.52;93659.13;4381604;32;20189;-59
2021/12/10 06:07:33;;;;;;;1.65;0.70;;;;;;;0.54;81.25;93643.59;4389497;32;20251;-59
2021/12/10 06:09:59;;;;;;;1.10;0.73;;;;;;;0.40;81.81;93649.72;4393186;32;20185;-59
2021/12/10 06:12:24;;;;;;;1.13;0.87;;;;;;;0.51;81.74;93646.75;4386695;32;20208;-60
2021/12/10 06:14:49;;;;;;;0.93;0.73;;;;;;;0.47;82.20;93645.72;4379280;32;20208;-60
2021/12/10 06:17:15;;;;;;;2.87;1.10;;;;;;;0.41;82.32;93639.00;4384116;32;20187;-60
2021/12/10 06:19:40;;;;;;;1.20;0.90;;;;;;;0.44;81.69;93633.22;4385778;32;20291;-60
2021/12/10 06:22:06;;;;;;;1.53;0.93;;;;;;;0.41;81.85;93631.19;4370650;32;20192;-60
2021/12/10 06:24:34;;;;;;;1.93;1.27;;;;;;;0.67;81.10;93616.09;4367250;32;20200;-61
2021/12/10 06:26:59;;;;;;;2.35;1.70;;;;;;;0.76;80.35;93608.47;4386632;32;20210;-60
2021/12/10 06:29:27;;;;;;;2.37;2.17;;;;;;;0.73;80.44;93615.00;4381194;32;20185;-60
2021/12/10 06:31:54;;;;;;;2.12;1.92;;;;;;;0.64;80.16;93612.19;4390784;32;20237;-60
2021/12/10 06:34:19;;;;;;;1.90;1.70;;;;;;;0.63;81.09;93597.59;4389633;32;20200;-60
2021/12/10 06:37:25;;;;;;;2.00;1.90;;;;;;;0.58;80.93;93597.66;4381730;32;20185;-60
2021/12/10 06:39:50;;;;;;;3.08;2.40;;;;;;;0.53;81.31;93595.09;4383245;32;20267;-60
2021/12/10 06:45:38;;;;;;;2.70;2.50;;;;;;;0.72;81.08;93573.53;4388601;32;20203;-60
2021/12/10 06:48:07;;;;;;;3.03;2.80;;;;;;;0.84;80.32;93566.09;4390312;32;20201;-60
2021/12/10 06:50:51;;;;;;;4.00;2.92;;;;;;;0.82;80.69;93568.25;4386144;32;20262;-61
2021/12/10 06:53:19;;;;;;;3.67;3.37;;;;;;;0.76;80.83;93562.28;4390841;32;20192;-60
2021/12/10 06:55:45;;;;;;;4.70;3.33;;;;;;;0.85;80.51;93565.84;4386159;32;20192;-60
2021/12/10 06:58:11;;;;;;;3.27;3.07;;;;;;;0.90;80.47;93567.63;4392217;32;20318;-60
2021/12/10 07:00:44;;;;;;;4.10;3.80;;;;;;;0.86;80.36;93570.00;4382738;32;20184;-60
2021/12/10 07:03:12;;;;;;;4.47;3.33;;;;;;;1.04;79.72;93561.47;4390401;32;20184;-60
2021/12/10 07:05:38;;;;;;;3.85;3.33;;;;;;;0.59;80.85;93557.50;4392066;32;20184;-60
2021/12/10 07:08:04;;;;;;;3.97;3.67;;;;;;;0.41;82.16;93545.13;4390911;32;20192;-60
2021/12/10 07:10:29;;;;;;;16.90;6.23;;;;;;;0.59;81.65;93547.06;4392294;32;20196;-59
2021/12/10 07:12:55;;;;;;;31.13;8.87;;;;;;;0.99;88.30;93532.81;4385775;32;20292;-60
2021/12/10 07:15:20;;;;;;;18.37;7.47;;;;;;;2.84;96.58;93524.69;4386740;32;20272;-60
2021/12/10 07:17:48;;;;;;;12.57;6.63;;;;;;;3.46;92.61;93525.88;4390219;32;20227;-60
2021/12/10 07:20:16;;;;;;;7.70;5.33;;;;;;;3.85;86.57;93517.44;4388486;32;20180;-60
2021/12/10 07:22:42;;;;;;;12.17;5.23;;;;;;;4.39;82.89;93521.72;4390473;32;20334;-60
2021/12/10 07:25:08;;;;;;;6.00;4.73;;;;;;;4.51;79.66;93515.94;4388700;32;20276;-60
2021/12/10 07:27:34;;;;;;;6.30;4.87;;;;;;;5.02;78.01;93510.16;4387333;32;20207;-59
2021/12/10 07:30:00;;;;;;;5.63;4.70;;;;;;;5.01;77.51;93499.94;4390259;32;20288;-59
2021/12/10 07:32:25;;;;;;;6.33;4.47;;;;;;;5.04;75.97;93504.59;4390405;32;20185;-59
2021/12/10 07:34:50;;;;;;;4.77;4.40;;;;;;;5.19;74.75;93512.09;4389621;32;20280;-59
2021/12/10 07:37:16;;;;;;;5.13;4.23;;;;;;;5.87;76.99;93511.47;4386224;32;20199;-59
2021/12/10 07:39:41;;;;;;;4.30;3.90;;;;;;;5.82;74.28;93501.09;4401839;32;20240;-59
2021/12/10 07:42:09;;;;;;;5.37;3.90;;;;;;;5.78;71.38;93510.72;4402314;32;20192;-59
2021/12/10 07:44:35;;;;;;;3.60;3.40;;;;;;;5.98;70.47;93509.34;4406435;32;20192;-59
2021/12/10 07:47:03;;;;;;;4.40;4.10;;;;;;;5.70;66.22;93505.41;4379774;32;20298;-61
2021/12/10 07:49:31;;;;;;;4.57;4.17;;;;;;;5.74;70.78;93501.09;4411446;32;20318;-59
2021/12/10 07:51:58;;;;;;;4.17;3.83;;;;;;;5.08;69.61;93489.78;4399093;32;20291;-59
2021/12/10 07:54:24;;;;;;;3.77;3.47;;;;;;;5.89;69.23;93487.50;4411936;32;20316;-59
2021/12/10 07:56:50;;;;;;;3.50;3.30;;;;;;;5.79;68.66;93482.53;4406479;32;20323;-59
2021/12/10 07:59:16;;;;;;;4.10;3.80;;;;;;;5.65;67.43;93479.25;4409226;32;20207;-59
2021/12/10 08:01:41;;;;;;;3.60;3.40;;;;;;;5.92;66.58;93476.37;4397655;32;20295;-59
2021/12/10 08:04:07;;;;;;;4.70;4.17;;;;;;;5.83;65.95;93478.19;4408286;32;20212;-59
2021/12/10 08:06:33;;;;;;;3.93;3.63;;;;;;;5.72;66.03;93476.94;4402149;32;20252;-59
2021/12/10 08:09:00;;;;;;;3.83;3.53;;;;;;;6.00;68.23;93475.63;4380722;32;20188;-59
2021/12/10 08:11:26;;;;;;;3.23;3.03;;;;;;;5.78;64.83;93473.88;4399688;32;20267;-59
2021/12/10 08:13:51;;;;;;;4.17;3.87;;;;;;;5.87;66.73;93458.84;4399368;32;20358;-59
2021/12/10 08:16:17;;;;;;;4.63;3.50;;;;;;;5.71;66.79;93465.66;4406089;32;20309;-58
2021/12/10 08:18:42;;;;;;;3.93;3.73;;;;;;;5.51;65.39;93461.75;4385678;32;20204;-59
2021/12/10 08:21:08;;;;;;;3.50;3.03;;;;;;;5.60;66.57;93464.41;4399961;32;20208;-59
2021/12/10 08:23:37;;;;;;;4.00;3.70;;;;;;;5.62;66.96;93461.44;4393075;32;20180;-62
2021/12/10 08:26:06;;;;;;;4.00;3.70;;;;;;;5.75;64.23;93452.66;4381862;32;20225;-59
2021/12/10 08:28:33;;;;;;;4.20;3.87;;;;;;;5.86;63.32;93446.78;4405011;32;20283;-59
2021/12/10 08:31:00;;;;;;;4.07;3.77;;;;;;;5.67;63.57;93451.56;4406946;32;20272;-59
2021/12/10 08:33:26;;;;;;;4.10;3.80;;;;;;;5.75;64.63;93450.03;4389180;32;20267;-58
2021/12/10 08:35:56;;;;;;;3.57;3.27;;;;;;;5.63;63.98;93447.22;4391500;32;20279;-58
2021/12/10 08:38:22;;;;;;;4.23;3.87;;;;;;;5.63;64.72;93449.84;4391228;32;20341;-58
2021/12/10 08:40:55;;;;;;;3.57;3.30;;;;;;;5.60;62.34;93443.38;4405260;32;20268;-58
2021/12/10 08:43:21;;;;;;;3.77;3.43;;;;;;;5.65;61.76;93434.53;4402724;32;20187;-58
2021/12/10 08:45:46;;;;;;;4.63;3.17;;;;;;;5.90;61.18;93431.19;4406287;32;20355;-58
2021/12/10 08:48:12;;;;;;;3.93;3.63;;;;;;;4.80;60.82;93437.44;4390895;32;20183;-58
2021/12/10 08:50:40;;;;;;;3.30;3.10;;;;;;;3.71;63.90;93435.44;4396926;32;20226;-58
2021/12/10 08:53:09;;;;;;;3.87;3.23;;;;;;;3.71;65.27;93440.69;4394529;32;20188;-58
2021/12/10 08:55:36;;;;;;;4.20;3.90;;;;;;;2.97;67.57;93448.75;4406766;32;20275;-58
2021/12/10 08:58:03;;;;;;;4.43;3.80;;;;;;;2.55;69.21;93444.56;4394133;32;20298;-61
2021/12/10 09:00:29;;;;;;;3.73;3.47;;;;;;;2.83;68.95;93445.38;4416856;32;20279;-60
2021/12/10 09:02:57;;;;;;;3.70;2.93;;;;;;;3.21;67.18;93435.44;4394301;32;20310;-60
2021/12/10 09:05:23;;;;;;;3.40;3.10;;;;;;;2.74;68.58;93442.66;4391724;32;20224;-61
2021/12/10 09:07:49;;;;;;;3.90;3.60;;;;;;;3.07;68.10;93430.25;4385441;32;20276;-61
2021/12/10 09:10:18;;;;;;;3.43;3.23;;;;;;;2.93;68.40;93428.69;4408463;32;20305;-58
2021/12/10 09:12:44;;;;;;;3.63;3.40;;;;;;;2.57;69.74;93431.19;4391191;32;20184;-58
2021/12/10 09:15:12;;;;;;;3.60;3.33;;;;;;;2.99;68.85;93422.28;4407425;32;20403;-57
2021/12/10 09:17:40;;;;;;;3.60;3.40;;;;;;;2.81;68.94;93415.31;4388982;32;20192;-58
2021/12/10 09:20:13;;;;;;;3.30;3.00;;;;;;;2.66;68.93;93414.56;4384658;32;20268;-58
2021/12/10 09:22:40;;;;;;;4.33;4.03;;;;;;;2.60;69.50;93399.22;4401276;32;20348;-58
2021/12/10 09:25:07;;;;;;;3.50;3.27;;;;;;;2.30;70.91;93395.31;4408032;32;20298;-58
2021/12/10 09:27:35;;;;;;;3.80;3.50;;;;;;;2.25;72.07;93393.59;4394603;32;20303;-58
2021/12/10 09:30:04;;;;;;;3.40;3.10;;;;;;;2.48;70.95;93391.88;4408695;32;20406;-65
2021/12/10 09:32:29;;;;;;;3.40;3.10;;;;;;;2.84;69.57;93393.78;4396146;32;20284;-58
2021/12/10 09:34:57;;;;;;;4.00;3.47;;;;;;;3.05;68.60;93384.44;4394530;32;20316;-57
2021/12/10 09:37:24;;;;;;;3.33;3.03;;;;;;;3.36;67.74;93384.56;4393832;32;20173;-58
2021/12/10 09:39:50;;;;;;;2.87;2.67;;;;;;;3.66;67.08;93385.72;4414216;32;20341;-58
2021/12/10 09:42:18;;;;;;;3.33;3.10;;;;;;;3.58;65.70;93375.94;4392845;32;20334;-58
2021/12/10 09:44:44;;;;;;;2.93;2.73;;;;;;;3.11;67.07;93378.03;4411571;32;20291;-58
2021/12/10 09:47:14;;;;;;;3.93;3.60;;;;;;;3.18;67.40;93367.16;4406006;32;20319;-59
2021/12/10 09:49:42;;;;;;;2.80;2.60;;;;;;;3.09;67.75;93374.94;4392999;32;20317;-58
2021/12/10 09:52:08;;;;;;;2.87;2.67;;;;;;;3.04;67.87;93377.66;4393144;32;20319;-59
2021/12/10 09:54:36;;;;;;;2.63;2.43;;;;;;;3.16;67.70;93372.69;4392111;32;20279;-59
2021/12/10 09:57:07;;;;;;;3.00;2.40;;;;;;;3.12;66.97;93374.34;4392332;32;20191;-59
2021/12/10 09:59:35;;;;;;;2.70;2.50;;;;;;;3.06;67.87;93365.06;4392801;32;20312;-62
2021/12/10 10:02:00;;;;;;;2.57;2.37;;;;;;;3.16;67.63;93351.72;4385115;32;20275;-61
2021/12/10 10:04:28;;;;;;;2.70;2.50;;;;;;;3.28;67.23;93353.84;4395895;32;20340;-59
2021/12/10 10:06:57;;;;;;;2.37;2.17;;;;;;;3.39;66.64;93350.69;4407716;32;20189;-60
2021/12/10 10:09:25;;;;;;;2.70;2.60;;;;;;;3.25;67.23;93347.34;4407345;32;20279;-58
2021/12/10 10:11:56;;;;;;;2.43;2.27;;;;;;;3.40;66.91;93339.13;4407294;32;20276;-58
2021/12/10 10:14:22;;;;;;;3.20;2.90;;;;;;;3.55;66.13;93329.34;4405861;32;20370;-58
2021/12/10 10:16:47;;;;;;;3.20;2.90;;;;;;;3.29;66.88;93332.59;4393319;32;20409;-59
2021/12/10 10:19:14;;;;;;;3.77;2.50;;;;;;;3.44;67.08;93324.37;4406858;32;20186;-59
2021/12/10 10:21:43;;;;;;;2.57;2.37;;;;;;;3.59;66.42;93309.34;4407120;32;20239;-58
2021/12/10 10:24:11;;;;;;;2.77;2.57;;;;;;;3.67;65.98;93295.53;4408212;32;20286;-58
2021/12/10 10:26:45;;;;;;;2.80;2.60;;;;;;;3.57;65.07;93301.00;4382138;32;20273;-58
2021/12/10 10:29:17;;;;;;;3.13;2.83;;;;;;;3.83;65.26;93288.03;4405597;32;20347;-58
2021/12/10 10:31:50;;;;;;;2.53;2.40;;;;;;;3.74;64.97;93274.91;4395608;32;20292;-58
2021/12/10 10:34:17;;;;;;;2.47;2.27;;;;;;;3.75;64.18;93258.06;4395061;32;20294;-58
2021/12/10 10:36:42;;;;;;;2.53;2.33;;;;;;;3.56;64.49;93255.66;4407219;32;20286;-58
2021/12/10 10:39:14;;;;;;;2.47;2.27;;;;;;;3.32;64.96;93242.91;4392713;32;20370;-58
2021/12/10 10:41:41;;;;;;;9.43;2.40;;;;;;;3.12;66.25;93243.38;4387179;32;20239;-59
2021/12/10 10:44:06;;;;;;;3.33;2.60;;;;;;;3.25;66.39;93233.91;4402882;32;20291;-59
2021/12/10 10:46:33;;;;;;;2.77;2.57;;;;;;;3.36;66.02;93224.72;4407711;32;20294;-59
2021/12/10 10:48:59;;;;;;;2.53;2.43;;;;;;;3.37;66.62;93232.28;4409113;32;20192;-59
2021/12/10 10:51:32;;;;;;;2.20;2.03;;;;;;;3.35;67.02;93221.34;4391949;32;20284;-58
2021/12/10 10:54:01;;;;;;;2.53;2.30;;;;;;;3.63;66.23;93231.66;4394549;32;20217;-59
2021/12/10 10:56:37;;;;;;;2.20;2.00;;;;;;;3.62;65.73;93236.12;4393696;32;20287;-59
2021/12/10 10:59:22;;;;;;;2.10;2.00;;;;;;;3.49;65.51;93244.84;4391459;32;20294;-59
2021/12/10 11:02:05;;;;;;;3.10;2.90;;;;;;;3.36;66.39;93249.09;4405993;32;20280;-57
2021/12/10 11:04:34;;;;;;;2.80;2.27;;;;;;;3.33;66.30;93252.28;4409053;32;20275;-58
2021/12/10 11:07:09;;;;;;;2.53;2.33;;;;;;;3.56;65.30;93247.81;4407021;32;20290;-59
2021/12/10 11:09:43;;;;;;;2.53;2.33;;;;;;;3.86;65.13;93248.87;4404574;32;20287;-58
2021/12/10 11:12:15;;;;;;;2.60;2.40;;;;;;;3.87;65.19;93245.19;4394183;32;20271;-58
2021/12/10 11:14:48;;;;;;;2.63;2.10;;;;;;;3.75;65.76;93250.22;4400864;32;20283;-58
2021/12/10 11:17:30;;;;;;;2.00;1.90;;;;;;;3.67;66.57;93241.25;4406880;32;20268;-58
2021/12/10 11:20:20;;;;;;;2.90;2.13;;;;;;;3.45;66.93;93236.81;4386347;32;20290;-58
2021/12/10 11:22:51;;;;;;;2.43;1.83;;;;;;;3.80;65.86;93229.09;4391698;32;20284;-57
2021/12/10 11:25:21;;;;;;;2.90;2.70;;;;;;;3.77;65.90;93224.47;4406822;32;20279;-58
2021/12/10 11:27:47;;;;;;;2.67;2.57;;;;;;;3.86;66.59;93216.66;4392563;32;20265;-58
2021/12/10 11:30:21;;;;;;;2.63;2.37;;;;;;;3.89;66.23;93213.41;4406814;32;20344;-58
2021/12/10 11:32:53;;;;;;;3.57;2.87;;;;;;;3.99;66.43;93206.03;4392822;32;20294;-58
2021/12/10 11:35:30;;;;;;;2.67;2.57;;;;;;;3.92;66.63;93205.72;4389721;32;20363;-58
2021/12/10 11:38:01;;;;;;;3.37;3.07;;;;;;;4.26;65.42;93204.25;4403176;32;20328;-58
2021/12/10 11:40:34;;;;;;;2.70;2.60;;;;;;;3.90;65.51;93202.63;4405536;32;20334;-59
2021/12/10 11:49:03;;;;;;;3.27;2.73;;;;;;;4.27;65.53;93180.34;4399727;32;20305;-58
2021/12/10 11:51:32;;;;;;;4.17;3.33;;;;;;;4.47;64.96;93190.25;4404215;32;20290;-60
2021/12/10 11:54:04;;;;;;;2.70;2.50;;;;;;;4.49;65.00;93192.56;4405378;32;20370;-58
2021/12/10 11:56:35;;;;;;;3.10;2.80;;;;;;;4.48;64.70;93183.91;4406365;32;20279;-58
2021/12/10 11:59:04;;;;;;;2.83;2.63;;;;;;;4.48;64.35;93188.41;4400493;32;20276;-58
2021/12/10 12:01:30;;;;;;;3.10;2.90;;;;;;;4.38;64.72;93184.19;4396348;32;20290;-58
2021/12/10 12:03:55;;;;;;;2.93;2.63;;;;;;;4.46;64.56;93185.31;4391056;32;20287;-58
2021/12/10 12:06:21;;;;;;;3.50;3.30;;;;;;;4.59;64.13;93173.88;4405697;32;20286;-58